sensor_id;sensor_type;location;lat;lon;timestamp;temperature;humidity
20068;DHT22;10194;50.824;7.134;2023-06-22T00:01:29;20.70;99.90
20068;DHT22;10194;50.824;7.134;2023-06-22T00:03:54;20.60;99.90
20068;DHT22;10194;50.824;7.134;2023-06-22T00:06:20;20.60;99.90
20068;DHT22;10194;50.824;7.134;2023-06-22T00:08:47;20.50;99.90
20068;DHT22;10194;50.824;7.134;2023-06-22T00:11:13;20.60;99.90
20068;DHT22;10194;50.824;7.134;2023-06-22T00:13:39;20.50;99.90
20068;DHT22;10194;50.824;7.134;2023-06-22T00:16:05;20.50;99.90
20068;DHT22;10194;50.824;7.134;2023-06-22T00:18:31;20.40;99.90
20068;DHT22;10194;50.824;7.134;2023-06-22T00:20:57;20.40;99.90
20068;DHT22;10194;50.824;7.134;2023-06-22T00:23:24;20.50;99.90
20068;DHT22;10194;50.824;7.134;2023-06-22T00:25:50;20.40;99.90
20068;DHT22;10194;50.824;7.134;2023-06-22T00:28:16;20.40;99.90
20068;DHT22;10194;50.824;7.134;2023-06-22T00:30:41;20.40;99.90
20068;DHT22;10194;50.824;7.134;2023-06-22T00:33:07;20.40;99.90
20068;DHT22;10194;50.824;7.134;2023-06-22T00:35:33;20.40;99.90
20068;DHT22;10194;50.824;7.134;2023-06-22T00:38:00;20.40;99.90
20068;DHT22;10194;50.824;7.134;2023-06-22T00:40:27;20.40;99.90
20068;DHT22;10194;50.824;7.134;2023-06-22T00:42:54;20.40;99.90
20068;DHT22;10194;50.824;7.134;2023-06-22T00:45:21;20.40;99.90
20068;DHT22;10194;50.824;7.134;2023-06-22T00:47:52;20.40;99.90
20068;DHT22;10194;50.824;7.134;2023-06-22T00:50:22;20.40;99.90
20068;DHT22;10194;50.824;7.134;2023-06-22T00:52:52;20.40;99.90
20068;DHT22;10194;50.824;7.134;2023-06-22T00:55:22;20.40;99.90
20068;DHT22;10194;50.824;7.134;2023-06-22T00:57:48;20.40;99.90
20068;DHT22;10194;50.824;7.134;2023-06-22T01:00:16;20.40;99.90
20068;DHT22;10194;50.824;7.134;2023-06-22T01:02:46;20.30;99.90
20068;DHT22;10194;50.824;7.134;2023-06-22T01:05:17;20.40;99.90
20068;DHT22;10194;50.824;7.134;2023-06-22T01:11:08;20.30;99.90
20068;DHT22;10194;50.824;7.134;2023-06-22T01:16:29;20.30;99.90
20068;DHT22;10194;50.824;7.134;2023-06-22T01:18:59;20.40;99.90
20068;DHT22;10194;50.824;7.134;2023-06-22T01:21:29;20.40;99.90
20068;DHT22;10194;50.824;7.134;2023-06-22T01:24:22;20.40;99.90
20068;DHT22;10194;50.824;7.134;2023-06-22T01:26:54;20.40;99.90
20068;DHT22;10194;50.824;7.134;2023-06-22T01:29:27;20.40;99.90
20068;DHT22;10194;50.824;7.134;2023-06-22T01:31:56;20.40;99.90
20068;DHT22;10194;50.824;7.134;2023-06-22T01:34:23;20.30;99.90
20068;DHT22;10194;50.824;7.134;2023-06-22T01:36:50;20.40;99.90
20068;DHT22;10194;50.824;7.134;2023-06-22T01:39:17;20.40;99.90
20068;DHT22;10194;50.824;7.134;2023-06-22T01:41:44;20.40;99.90
20068;DHT22;10194;50.824;7.134;2023-06-22T01:44:10;20.40;99.90
20068;DHT22;10194;50.824;7.134;2023-06-22T01:46:38;20.30;99.90
20068;DHT22;10194;50.824;7.134;2023-06-22T01:49:06;20.20;99.90
20068;DHT22;10194;50.824;7.134;2023-06-22T01:51:32;20.10;99.90
20068;DHT22;10194;50.824;7.134;2023-06-22T01:53:58;20.10;99.90
20068;DHT22;10194;50.824;7.134;2023-06-22T01:56:23;20.10;99.90
20068;DHT22;10194;50.824;7.134;2023-06-22T01:59:14;20.10;99.90
20068;DHT22;10194;50.824;7.134;2023-06-22T02:01:57;20.10;99.90
20068;DHT22;10194;50.824;7.134;2023-06-22T02:04:31;20.00;99.90
20068;DHT22;10194;50.824;7.134;2023-06-22T02:07:00;19.90;99.90
20068;DHT22;10194;50.824;7.134;2023-06-22T02:09:31;19.90;99.90
20068;DHT22;10194;50.824;7.134;2023-06-22T02:11:58;19.90;99.90
20068;DHT22;10194;50.824;7.134;2023-06-22T02:14:25;19.90;99.90
20068;DHT22;10194;50.824;7.134;2023-06-22T02:16:51;19.90;99.90
20068;DHT22;10194;50.824;7.134;2023-06-22T02:19:23;19.90;99.90
20068;DHT22;10194;50.824;7.134;2023-06-22T02:21:49;19.80;99.90
20068;DHT22;10194;50.824;7.134;2023-06-22T02:24:14;19.80;99.90
20068;DHT22;10194;50.824;7.134;2023-06-22T02:26:40;19.80;99.90
20068;DHT22;10194;50.824;7.134;2023-06-22T02:29:07;19.80;99.90
20068;DHT22;10194;50.824;7.134;2023-06-22T02:31:33;19.90;99.90
20068;DHT22;10194;50.824;7.134;2023-06-22T02:33:59;19.80;99.90
20068;DHT22;10194;50.824;7.134;2023-06-22T02:36:25;19.80;99.90
20068;DHT22;10194;50.824;7.134;2023-06-22T02:38:53;19.70;99.90
20068;DHT22;10194;50.824;7.134;2023-06-22T02:41:21;19.70;99.90
20068;DHT22;10194;50.824;7.134;2023-06-22T02:43:47;19.70;99.90
20068;DHT22;10194;50.824;7.134;2023-06-22T02:46:13;19.70;99.90
20068;DHT22;10194;50.824;7.134;2023-06-22T02:48:40;19.70;99.90
20068;DHT22;10194;50.824;7.134;2023-06-22T02:51:06;19.70;99.90
20068;DHT22;10194;50.824;7.134;2023-06-22T02:53:32;19.80;99.90
20068;DHT22;10194;50.824;7.134;2023-06-22T02:55:58;19.70;99.90
20068;DHT22;10194;50.824;7.134;2023-06-22T02:58:26;19.70;99.90
20068;DHT22;10194;50.824;7.134;2023-06-22T03:00:52;19.60;99.90
20068;DHT22;10194;50.824;7.134;2023-06-22T03:03:19;19.60;99.90
20068;DHT22;10194;50.824;7.134;2023-06-22T03:05:45;19.60;99.90
20068;DHT22;10194;50.824;7.134;2023-06-22T03:08:11;19.60;99.90
20068;DHT22;10194;50.824;7.134;2023-06-22T03:10:37;19.60;99.90
20068;DHT22;10194;50.824;7.134;2023-06-22T03:13:04;19.60;99.90
20068;DHT22;10194;50.824;7.134;2023-06-22T03:15:30;19.60;99.90
20068;DHT22;10194;50.824;7.134;2023-06-22T03:17:57;19.60;99.90
20068;DHT22;10194;50.824;7.134;2023-06-22T03:20:22;19.60;99.90
20068;DHT22;10194;50.824;7.134;2023-06-22T03:22:48;19.60;99.90
20068;DHT22;10194;50.824;7.134;2023-06-22T03:25:14;19.60;99.90
20068;DHT22;10194;50.824;7.134;2023-06-22T03:27:41;19.60;99.90
20068;DHT22;10194;50.824;7.134;2023-06-22T03:30:08;19.70;99.90
20068;DHT22;10194;50.824;7.134;2023-06-22T03:32:35;19.70;99.90
20068;DHT22;10194;50.824;7.134;2023-06-22T03:35:01;19.70;99.90
20068;DHT22;10194;50.824;7.134;2023-06-22T03:37:28;19.70;99.90
20068;DHT22;10194;50.824;7.134;2023-06-22T03:39:54;19.70;99.90
20068;DHT22;10194;50.824;7.134;2023-06-22T03:42:20;19.60;99.90
20068;DHT22;10194;50.824;7.134;2023-06-22T03:44:46;19.60;99.90
20068;DHT22;10194;50.824;7.134;2023-06-22T03:47:12;19.60;99.90
20068;DHT22;10194;50.824;7.134;2023-06-22T03:49:38;19.70;99.90
20068;DHT22;10194;50.824;7.134;2023-06-22T03:52:04;19.70;99.90
20068;DHT22;10194;50.824;7.134;2023-06-22T03:54:31;19.70;99.90
20068;DHT22;10194;50.824;7.134;2023-06-22T03:56:57;19.80;99.90
20068;DHT22;10194;50.824;7.134;2023-06-22T03:59:24;19.80;99.90
20068;DHT22;10194;50.824;7.134;2023-06-22T04:01:50;19.90;99.90
20068;DHT22;10194;50.824;7.134;2023-06-22T04:04:19;19.90;99.90
20068;DHT22;10194;50.824;7.134;2023-06-22T04:06:45;19.90;99.90
20068;DHT22;10194;50.824;7.134;2023-06-22T04:09:11;19.90;99.90
20068;DHT22;10194;50.824;7.134;2023-06-22T04:11:37;19.90;99.90
20068;DHT22;10194;50.824;7.134;2023-06-22T04:14:03;20.10;99.90
20068;DHT22;10194;50.824;7.134;2023-06-22T04:16:30;20.10;99.90
20068;DHT22;10194;50.824;7.134;2023-06-22T04:18:55;20.10;99.90
20068;DHT22;10194;50.824;7.134;2023-06-22T04:21:21;20.20;99.90
20068;DHT22;10194;50.824;7.134;2023-06-22T04:23:47;20.20;99.90
20068;DHT22;10194;50.824;7.134;2023-06-22T04:26:13;20.30;99.90
20068;DHT22;10194;50.824;7.134;2023-06-22T04:28:40;20.30;99.90
20068;DHT22;10194;50.824;7.134;2023-06-22T04:31:06;20.30;99.90
20068;DHT22;10194;50.824;7.134;2023-06-22T04:33:32;20.40;99.90
20068;DHT22;10194;50.824;7.134;2023-06-22T04:35:58;20.40;99.90
20068;DHT22;10194;50.824;7.134;2023-06-22T04:38:26;20.40;99.90
20068;DHT22;10194;50.824;7.134;2023-06-22T04:40:52;20.40;99.90
20068;DHT22;10194;50.824;7.134;2023-06-22T04:43:19;20.40;99.90
20068;DHT22;10194;50.824;7.134;2023-06-22T04:45:45;20.40;99.90
20068;DHT22;10194;50.824;7.134;2023-06-22T04:48:11;20.40;99.90
20068;DHT22;10194;50.824;7.134;2023-06-22T04:50:41;20.40;99.90
20068;DHT22;10194;50.824;7.134;2023-06-22T04:53:07;20.50;99.90
20068;DHT22;10194;50.824;7.134;2023-06-22T04:55:35;20.50;99.90
20068;DHT22;10194;50.824;7.134;2023-06-22T04:58:03;20.60;99.90
20068;DHT22;10194;50.824;7.134;2023-06-22T05:00:30;20.60;99.90
20068;DHT22;10194;50.824;7.134;2023-06-22T05:02:57;20.70;99.90
20068;DHT22;10194;50.824;7.134;2023-06-22T05:05:24;20.60;99.90
20068;DHT22;10194;50.824;7.134;2023-06-22T05:07:50;20.70;99.90
20068;DHT22;10194;50.824;7.134;2023-06-22T05:10:19;20.70;99.90
20068;DHT22;10194;50.824;7.134;2023-06-22T05:12:46;20.70;99.90
20068;DHT22;10194;50.824;7.134;2023-06-22T05:15:12;20.70;99.90
20068;DHT22;10194;50.824;7.134;2023-06-22T05:17:38;20.70;99.90
20068;DHT22;10194;50.824;7.134;2023-06-22T05:20:11;20.80;99.90
20068;DHT22;10194;50.824;7.134;2023-06-22T05:22:38;21.00;99.90
20068;DHT22;10194;50.824;7.134;2023-06-22T05:25:07;21.00;99.90
20068;DHT22;10194;50.824;7.134;2023-06-22T05:27:34;21.10;99.90
20068;DHT22;10194;50.824;7.134;2023-06-22T05:30:08;21.10;99.90
20068;DHT22;10194;50.824;7.134;2023-06-22T05:32:35;21.30;99.90
20068;DHT22;10194;50.824;7.134;2023-06-22T05:35:02;21.50;99.90
20068;DHT22;10194;50.824;7.134;2023-06-22T05:37:28;21.80;99.90
20068;DHT22;10194;50.824;7.134;2023-06-22T05:39:54;22.00;99.90
20068;DHT22;10194;50.824;7.134;2023-06-22T05:42:21;22.10;99.90
20068;DHT22;10194;50.824;7.134;2023-06-22T05:44:47;22.00;99.90
20068;DHT22;10194;50.824;7.134;2023-06-22T05:47:13;22.10;99.90
20068;DHT22;10194;50.824;7.134;2023-06-22T05:49:39;22.20;99.90
20068;DHT22;10194;50.824;7.134;2023-06-22T05:52:04;22.30;99.90
20068;DHT22;10194;50.824;7.134;2023-06-22T05:54:32;22.40;99.90
20068;DHT22;10194;50.824;7.134;2023-06-22T05:56:57;22.40;99.90
20068;DHT22;10194;50.824;7.134;2023-06-22T05:59:23;22.30;99.90
20068;DHT22;10194;50.824;7.134;2023-06-22T06:01:49;22.30;99.90
20068;DHT22;10194;50.824;7.134;2023-06-22T06:04:18;22.20;99.90
20068;DHT22;10194;50.824;7.134;2023-06-22T06:06:44;22.20;99.90
20068;DHT22;10194;50.824;7.134;2023-06-22T06:09:13;22.40;99.90
20068;DHT22;10194;50.824;7.134;2023-06-22T06:11:39;22.30;99.90
20068;DHT22;10194;50.824;7.134;2023-06-22T06:14:05;22.40;99.90
20068;DHT22;10194;50.824;7.134;2023-06-22T06:16:30;22.50;99.90
20068;DHT22;10194;50.824;7.134;2023-06-22T06:18:56;22.60;99.90
20068;DHT22;10194;50.824;7.134;2023-06-22T06:21:23;22.50;99.90
20068;DHT22;10194;50.824;7.134;2023-06-22T06:23:49;22.50;99.90
20068;DHT22;10194;50.824;7.134;2023-06-22T06:26:15;22.60;99.90
20068;DHT22;10194;50.824;7.134;2023-06-22T06:28:43;22.60;99.90
20068;DHT22;10194;50.824;7.134;2023-06-22T06:31:09;22.60;99.90
20068;DHT22;10194;50.824;7.134;2023-06-22T06:33:35;22.50;99.90
20068;DHT22;10194;50.824;7.134;2023-06-22T06:36:01;22.40;99.90
20068;DHT22;10194;50.824;7.134;2023-06-22T06:38:29;22.40;99.90
20068;DHT22;10194;50.824;7.134;2023-06-22T06:40:56;22.30;99.90
20068;DHT22;10194;50.824;7.134;2023-06-22T06:43:22;22.30;99.90
20068;DHT22;10194;50.824;7.134;2023-06-22T06:45:49;22.40;99.90
20068;DHT22;10194;50.824;7.134;2023-06-22T06:48:14;22.50;99.90
20068;DHT22;10194;50.824;7.134;2023-06-22T06:50:40;22.60;99.90
20068;DHT22;10194;50.824;7.134;2023-06-22T06:53:06;22.70;99.90
20068;DHT22;10194;50.824;7.134;2023-06-22T06:55:32;22.70;99.90
20068;DHT22;10194;50.824;7.134;2023-06-22T06:58:01;22.70;99.90
20068;DHT22;10194;50.824;7.134;2023-06-22T07:00:28;23.00;99.90
20068;DHT22;10194;50.824;7.134;2023-06-22T07:02:54;23.10;99.90
20068;DHT22;10194;50.824;7.134;2023-06-22T07:05:19;23.20;99.90
20068;DHT22;10194;50.824;7.134;2023-06-22T07:07:45;23.50;99.90
20068;DHT22;10194;50.824;7.134;2023-06-22T07:10:11;23.70;99.90
20068;DHT22;10194;50.824;7.134;2023-06-22T07:12:37;23.70;99.90
20068;DHT22;10194;50.824;7.134;2023-06-22T07:15:07;23.60;99.90
20068;DHT22;10194;50.824;7.134;2023-06-22T07:17:34;23.80;99.90
20068;DHT22;10194;50.824;7.134;2023-06-22T07:20:01;23.90;99.90
20068;DHT22;10194;50.824;7.134;2023-06-22T07:22:29;23.90;99.90
20068;DHT22;10194;50.824;7.134;2023-06-22T07:24:55;23.80;99.90
20068;DHT22;10194;50.824;7.134;2023-06-22T07:27:21;23.70;99.90
20068;DHT22;10194;50.824;7.134;2023-06-22T07:29:47;23.60;99.90
20068;DHT22;10194;50.824;7.134;2023-06-22T07:32:13;23.50;99.90
20068;DHT22;10194;50.824;7.134;2023-06-22T07:34:39;23.70;99.90
20068;DHT22;10194;50.824;7.134;2023-06-22T07:37:05;23.90;99.90
20068;DHT22;10194;50.824;7.134;2023-06-22T07:39:30;24.20;99.90
20068;DHT22;10194;50.824;7.134;2023-06-22T07:41:56;24.40;99.90
20068;DHT22;10194;50.824;7.134;2023-06-22T07:44:22;25.10;99.90
20068;DHT22;10194;50.824;7.134;2023-06-22T07:46:48;24.90;99.90
20068;DHT22;10194;50.824;7.134;2023-06-22T07:49:13;24.90;99.90
20068;DHT22;10194;50.824;7.134;2023-06-22T07:51:39;24.90;99.90
20068;DHT22;10194;50.824;7.134;2023-06-22T07:54:05;24.90;99.90
20068;DHT22;10194;50.824;7.134;2023-06-22T07:56:31;25.20;99.90
20068;DHT22;10194;50.824;7.134;2023-06-22T07:58:57;25.50;99.90
20068;DHT22;10194;50.824;7.134;2023-06-22T08:01:24;26.30;99.90
20068;DHT22;10194;50.824;7.134;2023-06-22T08:03:50;26.30;99.90
20068;DHT22;10194;50.824;7.134;2023-06-22T08:06:16;27.10;99.90
20068;DHT22;10194;50.824;7.134;2023-06-22T08:08:42;27.30;99.90
20068;DHT22;10194;50.824;7.134;2023-06-22T08:11:09;27.20;99.90
20068;DHT22;10194;50.824;7.134;2023-06-22T08:13:34;27.40;99.90
20068;DHT22;10194;50.824;7.134;2023-06-22T08:16:00;27.20;99.90
20068;DHT22;10194;50.824;7.134;2023-06-22T08:18:26;26.70;99.90
20068;DHT22;10194;50.824;7.134;2023-06-22T08:20:52;26.50;99.90
20068;DHT22;10194;50.824;7.134;2023-06-22T08:23:18;26.90;99.90
20068;DHT22;10194;50.824;7.134;2023-06-22T08:25:44;27.10;99.90
20068;DHT22;10194;50.824;7.134;2023-06-22T08:28:09;27.60;99.90
20068;DHT22;10194;50.824;7.134;2023-06-22T08:30:35;28.00;99.90
20068;DHT22;10194;50.824;7.134;2023-06-22T08:33:01;27.50;99.90
20068;DHT22;10194;50.824;7.134;2023-06-22T08:35:27;27.60;99.90
20068;DHT22;10194;50.824;7.134;2023-06-22T08:37:53;28.00;99.90
20068;DHT22;10194;50.824;7.134;2023-06-22T08:40:21;27.70;99.90
20068;DHT22;10194;50.824;7.134;2023-06-22T08:42:47;28.20;99.90
20068;DHT22;10194;50.824;7.134;2023-06-22T08:45:14;28.30;99.90
20068;DHT22;10194;50.824;7.134;2023-06-22T08:47:41;28.00;99.90
20068;DHT22;10194;50.824;7.134;2023-06-22T08:50:08;27.50;99.90
20068;DHT22;10194;50.824;7.134;2023-06-22T08:52:34;27.10;99.90
20068;DHT22;10194;50.824;7.134;2023-06-22T08:55:00;26.60;99.90
20068;DHT22;10194;50.824;7.134;2023-06-22T08:57:27;26.60;99.90
20068;DHT22;10194;50.824;7.134;2023-06-22T08:59:53;26.80;99.90
20068;DHT22;10194;50.824;7.134;2023-06-22T09:02:23;26.80;99.90
20068;DHT22;10194;50.824;7.134;2023-06-22T09:04:49;26.80;99.90
20068;DHT22;10194;50.824;7.134;2023-06-22T09:07:24;26.90;99.90
20068;DHT22;10194;50.824;7.134;2023-06-22T09:09:51;27.10;99.90
20068;DHT22;10194;50.824;7.134;2023-06-22T09:12:18;27.10;99.90
20068;DHT22;10194;50.824;7.134;2023-06-22T09:14:46;26.90;99.90
20068;DHT22;10194;50.824;7.134;2023-06-22T09:17:15;26.90;99.90
20068;DHT22;10194;50.824;7.134;2023-06-22T09:19:40;26.90;99.90
20068;DHT22;10194;50.824;7.134;2023-06-22T09:22:06;26.60;99.90
20068;DHT22;10194;50.824;7.134;2023-06-22T09:24:32;26.50;99.90
20068;DHT22;10194;50.824;7.134;2023-06-22T09:26:58;26.60;99.90
20068;DHT22;10194;50.824;7.134;2023-06-22T09:29:24;26.90;99.90
20068;DHT22;10194;50.824;7.134;2023-06-22T09:31:50;27.00;99.90
20068;DHT22;10194;50.824;7.134;2023-06-22T09:34:18;27.10;99.90
20068;DHT22;10194;50.824;7.134;2023-06-22T09:36:48;27.30;99.90
20068;DHT22;10194;50.824;7.134;2023-06-22T09:39:14;27.50;99.90
20068;DHT22;10194;50.824;7.134;2023-06-22T09:41:40;27.70;99.90
20068;DHT22;10194;50.824;7.134;2023-06-22T09:44:06;27.60;99.90
20068;DHT22;10194;50.824;7.134;2023-06-22T09:46:31;28.00;99.90
20068;DHT22;10194;50.824;7.134;2023-06-22T09:48:57;27.90;99.90
20068;DHT22;10194;50.824;7.134;2023-06-22T09:51:23;28.00;99.90
20068;DHT22;10194;50.824;7.134;2023-06-22T09:53:52;28.00;99.90
20068;DHT22;10194;50.824;7.134;2023-06-22T09:56:21;27.70;99.90
20068;DHT22;10194;50.824;7.134;2023-06-22T09:58:48;27.40;99.90
20068;DHT22;10194;50.824;7.134;2023-06-22T10:01:15;27.40;99.90
20068;DHT22;10194;50.824;7.134;2023-06-22T10:03:41;27.50;99.90
20068;DHT22;10194;50.824;7.134;2023-06-22T10:06:07;27.50;99.90
20068;DHT22;10194;50.824;7.134;2023-06-22T10:08:34;27.40;99.90
20068;DHT22;10194;50.824;7.134;2023-06-22T10:11:01;27.20;99.90
20068;DHT22;10194;50.824;7.134;2023-06-22T10:13:27;27.00;99.90
20068;DHT22;10194;50.824;7.134;2023-06-22T10:15:52;26.80;99.90
20068;DHT22;10194;50.824;7.134;2023-06-22T10:18:18;26.50;99.90
20068;DHT22;10194;50.824;7.134;2023-06-22T10:20:47;26.40;99.90
20068;DHT22;10194;50.824;7.134;2023-06-22T10:23:15;26.20;99.90
20068;DHT22;10194;50.824;7.134;2023-06-22T10:25:41;25.70;99.90
20068;DHT22;10194;50.824;7.134;2023-06-22T10:28:07;25.40;99.90
20068;DHT22;10194;50.824;7.134;2023-06-22T10:30:32;25.10;99.90
20068;DHT22;10194;50.824;7.134;2023-06-22T10:32:58;24.90;99.90
20068;DHT22;10194;50.824;7.134;2023-06-22T10:35:24;24.70;99.90
20068;DHT22;10194;50.824;7.134;2023-06-22T10:37:50;24.50;99.90
20068;DHT22;10194;50.824;7.134;2023-06-22T10:40:17;24.30;99.90
20068;DHT22;10194;50.824;7.134;2023-06-22T10:42:44;24.10;99.90
20068;DHT22;10194;50.824;7.134;2023-06-22T10:45:10;24.00;99.90
20068;DHT22;10194;50.824;7.134;2023-06-22T10:47:36;23.80;99.90
20068;DHT22;10194;50.824;7.134;2023-06-22T10:50:03;23.70;99.90
20068;DHT22;10194;50.824;7.134;2023-06-22T10:52:29;23.30;99.90
20068;DHT22;10194;50.824;7.134;2023-06-22T10:54:55;23.10;99.90
20068;DHT22;10194;50.824;7.134;2023-06-22T10:57:21;23.00;99.90
20068;DHT22;10194;50.824;7.134;2023-06-22T10:59:48;22.80;99.90
20068;DHT22;10194;50.824;7.134;2023-06-22T11:02:14;22.90;99.90
20068;DHT22;10194;50.824;7.134;2023-06-22T11:04:40;22.80;99.90
20068;DHT22;10194;50.824;7.134;2023-06-22T11:07:06;22.80;99.90
20068;DHT22;10194;50.824;7.134;2023-06-22T11:09:32;22.60;99.90
20068;DHT22;10194;50.824;7.134;2023-06-22T11:11:57;22.60;99.90
20068;DHT22;10194;50.824;7.134;2023-06-22T11:14:24;22.60;99.90
20068;DHT22;10194;50.824;7.134;2023-06-22T11:16:50;22.50;99.90
20068;DHT22;10194;50.824;7.134;2023-06-22T11:19:16;22.20;99.90
20068;DHT22;10194;50.824;7.134;2023-06-22T11:21:43;22.10;99.90
20068;DHT22;10194;50.824;7.134;2023-06-22T11:24:09;22.20;99.90
20068;DHT22;10194;50.824;7.134;2023-06-22T11:26:35;22.40;99.90
20068;DHT22;10194;50.824;7.134;2023-06-22T11:29:02;22.30;99.90
20068;DHT22;10194;50.824;7.134;2023-06-22T11:31:31;22.20;99.90
20068;DHT22;10194;50.824;7.134;2023-06-22T11:33:57;22.20;99.90
20068;DHT22;10194;50.824;7.134;2023-06-22T11:36:23;22.00;99.90
20068;DHT22;10194;50.824;7.134;2023-06-22T11:38:49;22.10;99.90
20068;DHT22;10194;50.824;7.134;2023-06-22T11:41:15;22.10;99.90
20068;DHT22;10194;50.824;7.134;2023-06-22T11:43:41;22.10;99.90
20068;DHT22;10194;50.824;7.134;2023-06-22T11:46:06;22.50;99.90
20068;DHT22;10194;50.824;7.134;2023-06-22T11:48:32;22.60;99.90
20068;DHT22;10194;50.824;7.134;2023-06-22T11:50:58;23.00;99.90
20068;DHT22;10194;50.824;7.134;2023-06-22T11:53:25;23.20;99.90
20068;DHT22;10194;50.824;7.134;2023-06-22T11:55:52;23.40;99.90
20068;DHT22;10194;50.824;7.134;2023-06-22T11:58:20;23.60;99.90
20068;DHT22;10194;50.824;7.134;2023-06-22T12:00:46;23.80;99.90
20068;DHT22;10194;50.824;7.134;2023-06-22T12:03:12;23.90;99.90
20068;DHT22;10194;50.824;7.134;2023-06-22T12:05:42;23.50;99.90
20068;DHT22;10194;50.824;7.134;2023-06-22T12:08:07;23.40;99.90
20068;DHT22;10194;50.824;7.134;2023-06-22T12:10:33;23.30;99.90
20068;DHT22;10194;50.824;7.134;2023-06-22T12:12:59;23.10;99.90
20068;DHT22;10194;50.824;7.134;2023-06-22T12:15:26;23.20;99.90
20068;DHT22;10194;50.824;7.134;2023-06-22T12:17:52;23.40;99.90
20068;DHT22;10194;50.824;7.134;2023-06-22T12:20:18;23.40;99.90
20068;DHT22;10194;50.824;7.134;2023-06-22T12:22:44;23.10;99.90
20068;DHT22;10194;50.824;7.134;2023-06-22T12:25:10;23.00;99.90
20068;DHT22;10194;50.824;7.134;2023-06-22T12:27:37;22.90;99.90
20068;DHT22;10194;50.824;7.134;2023-06-22T12:30:03;22.70;99.90
20068;DHT22;10194;50.824;7.134;2023-06-22T12:32:30;22.70;99.90
20068;DHT22;10194;50.824;7.134;2023-06-22T12:34:56;22.80;99.90
20068;DHT22;10194;50.824;7.134;2023-06-22T12:37:22;22.90;99.90
20068;DHT22;10194;50.824;7.134;2023-06-22T12:39:48;23.10;99.90
20068;DHT22;10194;50.824;7.134;2023-06-22T12:42:15;23.60;99.90
20068;DHT22;10194;50.824;7.134;2023-06-22T12:44:42;23.80;99.90
20068;DHT22;10194;50.824;7.134;2023-06-22T12:47:08;23.90;99.90
20068;DHT22;10194;50.824;7.134;2023-06-22T12:49:35;23.50;99.90
20068;DHT22;10194;50.824;7.134;2023-06-22T12:52:01;23.50;99.90
20068;DHT22;10194;50.824;7.134;2023-06-22T12:54:27;23.30;99.90
20068;DHT22;10194;50.824;7.134;2023-06-22T12:56:56;23.40;99.90
20068;DHT22;10194;50.824;7.134;2023-06-22T12:59:22;23.30;99.90
20068;DHT22;10194;50.824;7.134;2023-06-22T13:01:47;23.00;99.90
20068;DHT22;10194;50.824;7.134;2023-06-22T13:04:13;23.00;99.90
20068;DHT22;10194;50.824;7.134;2023-06-22T13:06:47;23.10;99.90
20068;DHT22;10194;50.824;7.134;2023-06-22T13:09:14;23.20;99.90
20068;DHT22;10194;50.824;7.134;2023-06-22T13:11:42;23.40;99.90
20068;DHT22;10194;50.824;7.134;2023-06-22T13:14:08;23.60;99.90
20068;DHT22;10194;50.824;7.134;2023-06-22T13:16:34;23.70;99.90
20068;DHT22;10194;50.824;7.134;2023-06-22T13:18:59;24.00;99.90
20068;DHT22;10194;50.824;7.134;2023-06-22T13:21:25;24.00;99.90
20068;DHT22;10194;50.824;7.134;2023-06-22T13:23:51;24.10;99.90
20068;DHT22;10194;50.824;7.134;2023-06-22T13:26:17;24.10;99.90
20068;DHT22;10194;50.824;7.134;2023-06-22T13:28:43;24.20;99.90
20068;DHT22;10194;50.824;7.134;2023-06-22T13:31:08;24.20;99.90
20068;DHT22;10194;50.824;7.134;2023-06-22T13:33:34;24.20;99.90
20068;DHT22;10194;50.824;7.134;2023-06-22T13:36:00;24.20;99.90
20068;DHT22;10194;50.824;7.134;2023-06-22T13:38:28;24.30;99.90
20068;DHT22;10194;50.824;7.134;2023-06-22T13:40:54;24.40;99.90
20068;DHT22;10194;50.824;7.134;2023-06-22T13:43:23;24.40;99.90
20068;DHT22;10194;50.824;7.134;2023-06-22T13:45:48;24.40;99.90
20068;DHT22;10194;50.824;7.134;2023-06-22T13:48:14;24.50;99.90
20068;DHT22;10194;50.824;7.134;2023-06-22T13:50:40;24.50;99.90
20068;DHT22;10194;50.824;7.134;2023-06-22T13:53:06;24.40;99.90
20068;DHT22;10194;50.824;7.134;2023-06-22T13:55:31;24.40;99.90
20068;DHT22;10194;50.824;7.134;2023-06-22T13:57:57;24.50;99.90
20068;DHT22;10194;50.824;7.134;2023-06-22T14:00:23;24.70;99.90
20068;DHT22;10194;50.824;7.134;2023-06-22T14:02:49;24.80;99.90
20068;DHT22;10194;50.824;7.134;2023-06-22T14:05:14;24.90;99.90
20068;DHT22;10194;50.824;7.134;2023-06-22T14:07:40;24.90;99.90
20068;DHT22;10194;50.824;7.134;2023-06-22T14:10:06;24.90;99.90
20068;DHT22;10194;50.824;7.134;2023-06-22T14:12:32;25.00;99.90
20068;DHT22;10194;50.824;7.134;2023-06-22T14:14:58;25.20;99.90
20068;DHT22;10194;50.824;7.134;2023-06-22T14:17:24;25.30;99.90
20068;DHT22;10194;50.824;7.134;2023-06-22T14:19:51;25.10;99.90
20068;DHT22;10194;50.824;7.134;2023-06-22T14:22:21;25.10;99.90
20068;DHT22;10194;50.824;7.134;2023-06-22T14:24:48;25.00;99.90
20068;DHT22;10194;50.824;7.134;2023-06-22T14:27:14;25.00;99.90
20068;DHT22;10194;50.824;7.134;2023-06-22T14:29:40;25.00;99.90
20068;DHT22;10194;50.824;7.134;2023-06-22T14:32:07;25.00;99.90
20068;DHT22;10194;50.824;7.134;2023-06-22T14:34:34;25.00;99.90
20068;DHT22;10194;50.824;7.134;2023-06-22T14:37:06;24.90;99.90
20068;DHT22;10194;50.824;7.134;2023-06-22T14:39:33;24.70;99.90
20068;DHT22;10194;50.824;7.134;2023-06-22T14:41:59;24.50;99.90
20068;DHT22;10194;50.824;7.134;2023-06-22T14:44:26;24.30;99.90
20068;DHT22;10194;50.824;7.134;2023-06-22T14:46:54;24.00;99.90
20068;DHT22;10194;50.824;7.134;2023-06-22T14:49:21;23.80;99.90
20068;DHT22;10194;50.824;7.134;2023-06-22T14:51:46;23.50;99.90
20068;DHT22;10194;50.824;7.134;2023-06-22T14:54:12;23.20;99.90
20068;DHT22;10194;50.824;7.134;2023-06-22T14:56:38;22.80;99.90
20068;DHT22;10194;50.824;7.134;2023-06-22T14:59:04;22.60;99.90
20068;DHT22;10194;50.824;7.134;2023-06-22T15:01:30;22.60;99.90
20068;DHT22;10194;50.824;7.134;2023-06-22T15:03:56;22.50;99.90
20068;DHT22;10194;50.824;7.134;2023-06-22T15:06:21;22.50;99.90
20068;DHT22;10194;50.824;7.134;2023-06-22T15:08:47;22.30;99.90
20068;DHT22;10194;50.824;7.134;2023-06-22T15:11:13;22.30;99.90
20068;DHT22;10194;50.824;7.134;2023-06-22T15:13:40;22.40;99.90
20068;DHT22;10194;50.824;7.134;2023-06-22T15:16:07;22.30;99.90
20068;DHT22;10194;50.824;7.134;2023-06-22T15:18:34;22.10;99.90
20068;DHT22;10194;50.824;7.134;2023-06-22T15:21:01;21.70;99.90
20068;DHT22;10194;50.824;7.134;2023-06-22T15:23:31;21.40;99.90
20068;DHT22;10194;50.824;7.134;2023-06-22T15:25:58;21.30;99.90
20068;DHT22;10194;50.824;7.134;2023-06-22T15:28:25;21.20;99.90
20068;DHT22;10194;50.824;7.134;2023-06-22T15:30:51;21.00;99.90
20068;DHT22;10194;50.824;7.134;2023-06-22T15:33:17;20.90;99.90